New Deal, TX (79350)

10:01 AM CDT on August 30, 2016 (GMT -0500)
Lubbock International | | Change Station
Active Advisory: Special Statement

Elev 3241 ft 33.67 °N, 101.82 °W | Updated 8 minutes ago

Mostly Cloudy
Mostly Cloudy
70 °F
Feels Like 70 °F
N
9
Wind Variable Wind from NE

Today
High -- | Low -- °F
--% Chance of Precip.
Yesterday
High -- | Low -- °F
Precip. -- in
Pressure 30.11 in
Visibility 10.0 miles
Clouds Scattered Clouds 500 ft
Mostly Cloudy 8000 ft
Mostly Cloudy 25000 ft
Dew Point 67 °F
Humidity 90%
Rainfall 0.00 in
Snow Depth Not available.
7:20 AM 8:14 PM
Waning Crescent, 3% visible
METAR KLBB 301453Z 05008KT 10SM SCT005 BKN080 BKN250 21/19 A3022 RMK AO2 SLP194 T02110194 51008
Pressure 30.11 in
Visibility 10.0 miles
Clouds Scattered Clouds 500 ft
Mostly Cloudy 8000 ft
Mostly Cloudy 25000 ft
Dew Point 67 °F
Humidity 90%
Rainfall 0.00 in
Snow Depth Not available.
7:20 AM 8:14 PM
Waning Crescent, 3% visible
METAR KLBB 301453Z 05008KT 10SM SCT005 BKN080 BKN250 21/19 A3022 RMK AO2 SLP194 T02110194 51008

10-Day Weather Forecast

Almanac

Astronomy

Aug. 30, 2016 Rise Set
Actual Time
Civil Twilight
Nautical Twilight
Astronomical Twilight
Moon
Length of Visible Light
Length of Day
Tomorrow will be .
, % of the Moon is Illuminated

Today's Extremes

State Highs State Lows

Community

WunderPhotos

Upload Photos

1,935,853 photos uploaded!

WunderBlog® & News

Nearby

Air Quality

  Air Quality AQ Index Pollutant
Not available.

Snow Depth

Station Depth Elevation

Earthquake Activity

City Distance Mag. Time & Date
Minimum magnitude displayed is 2.5.

Coastal Water Temperatures

Place Temperature

Stations

Nearby Weather Stations

Station Location Temp. Windchill Dew Point Humidity Wind Precip. Elev Updated Type
                   

Watches & Warnings

Special Statement
Issued: 6:23 AM CDT Aug. 30, 2016 – National Weather Service

... Heavy rain and localized flooding possible through mid week
across the Texas South Plains region...

A very moist airmass will bring a risk for heavy rainfall and
localized flooding through Wednesday. Rainfall totals of one to
three inches are possible for most areas on The Caprock as well
as the northern part of the rolling plains. But isolated downpours
may result in several inches or more within an hour. The area
with the greatest threat for heavy rainfall and flooding will be
the western part of the Texas South Plains. Poorly defined
focusing will preclude a higher risk at this time.

Be mindful of extremely heavy rainfall and the suddenness that
flooding can occur. Move away from flood waters and find other
routes to avoid flooded roads.